sensor_id;sensor_type;location;lat;lon;timestamp;temperature;humidity
46926;DHT22;32667;48.248;-1.700;2022-12-29T00:00:40;12.10;78.80
46926;DHT22;32667;48.248;-1.700;2022-12-29T00:03:27;12.10;78.80
46926;DHT22;32667;48.248;-1.700;2022-12-29T00:05:57;12.10;78.80
46926;DHT22;32667;48.248;-1.700;2022-12-29T00:08:58;12.00;78.70
46926;DHT22;32667;48.248;-1.700;2022-12-29T00:11:47;12.10;78.80
46926;DHT22;32667;48.248;-1.700;2022-12-29T00:17:39;12.10;78.70
46926;DHT22;32667;48.248;-1.700;2022-12-29T00:20:12;12.10;78.70
46926;DHT22;32667;48.248;-1.700;2022-12-29T00:23:15;12.00;78.60
46926;DHT22;32667;48.248;-1.700;2022-12-29T00:26:15;12.00;78.60
46926;DHT22;32667;48.248;-1.700;2022-12-29T00:29:28;12.00;78.60
46926;DHT22;32667;48.248;-1.700;2022-12-29T00:32:15;12.00;78.60
46926;DHT22;32667;48.248;-1.700;2022-12-29T00:35:02;12.00;78.60
46926;DHT22;32667;48.248;-1.700;2022-12-29T00:37:39;12.00;78.60
46926;DHT22;32667;48.248;-1.700;2022-12-29T00:40:30;12.00;78.70
46926;DHT22;32667;48.248;-1.700;2022-12-29T00:43:20;12.00;78.70
46926;DHT22;32667;48.248;-1.700;2022-12-29T00:46:19;11.90;78.60
46926;DHT22;32667;48.248;-1.700;2022-12-29T00:49:06;12.00;78.70
46926;DHT22;32667;48.248;-1.700;2022-12-29T00:52:26;12.00;78.70
46926;DHT22;32667;48.248;-1.700;2022-12-29T00:54:51;12.00;78.70
46926;DHT22;32667;48.248;-1.700;2022-12-29T00:57:35;12.00;78.70
46926;DHT22;32667;48.248;-1.700;2022-12-29T01:00:00;12.00;78.70
46926;DHT22;32667;48.248;-1.700;2022-12-29T01:02:32;12.00;78.70
46926;DHT22;32667;48.248;-1.700;2022-12-29T01:05:11;11.90;78.70
46926;DHT22;32667;48.248;-1.700;2022-12-29T01:08:26;12.00;78.70
46926;DHT22;32667;48.248;-1.700;2022-12-29T01:11:35;11.90;78.70
46926;DHT22;32667;48.248;-1.700;2022-12-29T01:14:12;11.90;78.70
46926;DHT22;32667;48.248;-1.700;2022-12-29T01:16:40;11.90;78.60
46926;DHT22;32667;48.248;-1.700;2022-12-29T01:19:28;11.90;78.70
46926;DHT22;32667;48.248;-1.700;2022-12-29T01:22:04;11.90;78.70
46926;DHT22;32667;48.248;-1.700;2022-12-29T01:24:39;11.90;78.70
46926;DHT22;32667;48.248;-1.700;2022-12-29T01:27:09;11.90;78.80
46926;DHT22;32667;48.248;-1.700;2022-12-29T01:29:37;11.80;78.70
46926;DHT22;32667;48.248;-1.700;2022-12-29T01:32:26;11.80;78.80
46926;DHT22;32667;48.248;-1.700;2022-12-29T01:35:21;11.80;78.70
46926;DHT22;32667;48.248;-1.700;2022-12-29T01:41:17;11.80;78.80
46926;DHT22;32667;48.248;-1.700;2022-12-29T01:44:00;11.80;78.70
46926;DHT22;32667;48.248;-1.700;2022-12-29T01:46:40;11.90;78.80
46926;DHT22;32667;48.248;-1.700;2022-12-29T01:49:27;11.80;78.70
46926;DHT22;32667;48.248;-1.700;2022-12-29T01:52:09;11.90;78.80
46926;DHT22;32667;48.248;-1.700;2022-12-29T01:54:48;11.90;78.70
46926;DHT22;32667;48.248;-1.700;2022-12-29T01:57:34;11.90;78.60
46926;DHT22;32667;48.248;-1.700;2022-12-29T02:00:13;11.90;78.60
46926;DHT22;32667;48.248;-1.700;2022-12-29T02:02:56;11.90;78.60
46926;DHT22;32667;48.248;-1.700;2022-12-29T02:05:42;11.90;78.60
46926;DHT22;32667;48.248;-1.700;2022-12-29T02:08:26;11.80;78.60
46926;DHT22;32667;48.248;-1.700;2022-12-29T02:10:52;11.80;78.60
46926;DHT22;32667;48.248;-1.700;2022-12-29T02:13:19;11.80;78.60
46926;DHT22;32667;48.248;-1.700;2022-12-29T02:18:32;11.80;78.80
46926;DHT22;32667;48.248;-1.700;2022-12-29T02:24:27;11.70;78.80
46926;DHT22;32667;48.248;-1.700;2022-12-29T02:32:45;11.60;78.90
46926;DHT22;32667;48.248;-1.700;2022-12-29T02:44:10;11.60;78.80
46926;DHT22;32667;48.248;-1.700;2022-12-29T02:52:19;11.60;78.90
46926;DHT22;32667;48.248;-1.700;2022-12-29T02:54:49;11.60;78.90
46926;DHT22;32667;48.248;-1.700;2022-12-29T02:57:32;11.50;78.90
46926;DHT22;32667;48.248;-1.700;2022-12-29T03:00:08;11.50;79.00
46926;DHT22;32667;48.248;-1.700;2022-12-29T03:08:06;11.40;79.10
46926;DHT22;32667;48.248;-1.700;2022-12-29T03:11:03;11.40;79.00
46926;DHT22;32667;48.248;-1.700;2022-12-29T03:13:39;11.40;79.10
46926;DHT22;32667;48.248;-1.700;2022-12-29T03:19:05;11.40;79.10
46926;DHT22;32667;48.248;-1.700;2022-12-29T03:21:38;11.40;79.20
46926;DHT22;32667;48.248;-1.700;2022-12-29T03:24:26;11.40;79.10
46926;DHT22;32667;48.248;-1.700;2022-12-29T03:26:59;11.40;79.10
46926;DHT22;32667;48.248;-1.700;2022-12-29T03:29:29;11.30;79.00
46926;DHT22;32667;48.248;-1.700;2022-12-29T03:31:56;11.30;79.00
46926;DHT22;32667;48.248;-1.700;2022-12-29T03:34:24;11.30;79.00
46926;DHT22;32667;48.248;-1.700;2022-12-29T03:37:14;11.30;79.00
46926;DHT22;32667;48.248;-1.700;2022-12-29T03:39:41;11.30;79.00
46926;DHT22;32667;48.248;-1.700;2022-12-29T03:42:21;11.40;79.00
46926;DHT22;32667;48.248;-1.700;2022-12-29T03:44:54;11.40;79.00
46926;DHT22;32667;48.248;-1.700;2022-12-29T03:47:25;11.40;78.90
46926;DHT22;32667;48.248;-1.700;2022-12-29T03:49:51;11.40;79.00
46926;DHT22;32667;48.248;-1.700;2022-12-29T03:52:17;11.40;78.90
46926;DHT22;32667;48.248;-1.700;2022-12-29T03:54:43;11.40;78.90
46926;DHT22;32667;48.248;-1.700;2022-12-29T03:57:10;11.40;78.90
46926;DHT22;32667;48.248;-1.700;2022-12-29T03:59:36;11.40;78.90
46926;DHT22;32667;48.248;-1.700;2022-12-29T04:02:02;11.30;78.90
46926;DHT22;32667;48.248;-1.700;2022-12-29T04:04:29;11.30;78.90
46926;DHT22;32667;48.248;-1.700;2022-12-29T04:06:55;11.30;78.90
46926;DHT22;32667;48.248;-1.700;2022-12-29T04:09:20;11.30;79.00
46926;DHT22;32667;48.248;-1.700;2022-12-29T04:11:48;11.30;79.00
46926;DHT22;32667;48.248;-1.700;2022-12-29T04:14:14;11.20;79.00
46926;DHT22;32667;48.248;-1.700;2022-12-29T04:16:45;11.20;79.60
46926;DHT22;32667;48.248;-1.700;2022-12-29T04:19:11;11.20;79.00
46926;DHT22;32667;48.248;-1.700;2022-12-29T04:21:38;11.20;79.00
46926;DHT22;32667;48.248;-1.700;2022-12-29T04:24:05;11.20;79.10
46926;DHT22;32667;48.248;-1.700;2022-12-29T04:26:32;11.10;79.00
46926;DHT22;32667;48.248;-1.700;2022-12-29T04:28:58;11.10;79.10
46926;DHT22;32667;48.248;-1.700;2022-12-29T04:31:24;11.20;79.10
46926;DHT22;32667;48.248;-1.700;2022-12-29T04:33:50;11.10;79.00
46926;DHT22;32667;48.248;-1.700;2022-12-29T04:36:18;11.20;79.10
46926;DHT22;32667;48.248;-1.700;2022-12-29T04:39:02;11.10;79.10
46926;DHT22;32667;48.248;-1.700;2022-12-29T04:44:41;11.10;79.20
46926;DHT22;32667;48.248;-1.700;2022-12-29T04:49:53;11.00;79.00
46926;DHT22;32667;48.248;-1.700;2022-12-29T04:52:30;11.00;79.70
46926;DHT22;32667;48.248;-1.700;2022-12-29T04:54:58;11.00;79.10
46926;DHT22;32667;48.248;-1.700;2022-12-29T04:57:28;11.00;79.20
46926;DHT22;32667;48.248;-1.700;2022-12-29T05:00:02;11.00;79.20
46926;DHT22;32667;48.248;-1.700;2022-12-29T05:06:00;10.90;79.20
46926;DHT22;32667;48.248;-1.700;2022-12-29T05:11:51;10.90;79.30
46926;DHT22;32667;48.248;-1.700;2022-12-29T05:14:40;10.80;79.20
46926;DHT22;32667;48.248;-1.700;2022-12-29T05:17:27;10.80;79.30
46926;DHT22;32667;48.248;-1.700;2022-12-29T05:20:36;10.80;79.30
46926;DHT22;32667;48.248;-1.700;2022-12-29T05:23:02;10.80;79.40
46926;DHT22;32667;48.248;-1.700;2022-12-29T05:25:49;10.80;79.30
46926;DHT22;32667;48.248;-1.700;2022-12-29T05:28:15;10.70;79.30
46926;DHT22;32667;48.248;-1.700;2022-12-29T05:36:53;10.70;79.40
46926;DHT22;32667;48.248;-1.700;2022-12-29T05:39:25;10.70;79.40
46926;DHT22;32667;48.248;-1.700;2022-12-29T05:41:56;10.70;79.40
46926;DHT22;32667;48.248;-1.700;2022-12-29T05:44:34;10.60;79.40
46926;DHT22;32667;48.248;-1.700;2022-12-29T05:50:58;10.60;79.50
46926;DHT22;32667;48.248;-1.700;2022-12-29T05:53:29;10.50;79.40
46926;DHT22;32667;48.248;-1.700;2022-12-29T05:56:16;10.50;79.40
46926;DHT22;32667;48.248;-1.700;2022-12-29T05:58:47;10.50;79.40
46926;DHT22;32667;48.248;-1.700;2022-12-29T06:01:15;10.50;79.50
46926;DHT22;32667;48.248;-1.700;2022-12-29T06:03:43;10.50;79.40
46926;DHT22;32667;48.248;-1.700;2022-12-29T06:06:09;10.50;79.40
46926;DHT22;32667;48.248;-1.700;2022-12-29T06:08:35;10.40;79.40
46926;DHT22;32667;48.248;-1.700;2022-12-29T06:11:01;10.40;79.50
46926;DHT22;32667;48.248;-1.700;2022-12-29T06:13:26;10.40;79.50
46926;DHT22;32667;48.248;-1.700;2022-12-29T06:15:53;10.30;79.60
46926;DHT22;32667;48.248;-1.700;2022-12-29T06:18:18;10.30;79.60
46926;DHT22;32667;48.248;-1.700;2022-12-29T06:20:44;10.20;79.70
46926;DHT22;32667;48.248;-1.700;2022-12-29T06:23:10;10.20;79.80
46926;DHT22;32667;48.248;-1.700;2022-12-29T06:25:41;10.20;79.80
46926;DHT22;32667;48.248;-1.700;2022-12-29T06:28:07;10.10;79.90
46926;DHT22;32667;48.248;-1.700;2022-12-29T06:30:46;10.10;79.90
46926;DHT22;32667;48.248;-1.700;2022-12-29T06:33:12;10.10;79.90
46926;DHT22;32667;48.248;-1.700;2022-12-29T06:35:38;10.10;79.90
46926;DHT22;32667;48.248;-1.700;2022-12-29T06:38:09;10.10;80.00
46926;DHT22;32667;48.248;-1.700;2022-12-29T06:40:35;10.10;80.00
46926;DHT22;32667;48.248;-1.700;2022-12-29T06:43:00;10.10;79.90
46926;DHT22;32667;48.248;-1.700;2022-12-29T06:45:40;10.00;80.50
46926;DHT22;32667;48.248;-1.700;2022-12-29T06:48:07;10.00;80.00
46926;DHT22;32667;48.248;-1.700;2022-12-29T06:50:36;10.00;80.00
46926;DHT22;32667;48.248;-1.700;2022-12-29T06:53:11;10.00;80.00
46926;DHT22;32667;48.248;-1.700;2022-12-29T06:55:41;10.00;79.90
46926;DHT22;32667;48.248;-1.700;2022-12-29T06:58:07;10.00;80.00
46926;DHT22;32667;48.248;-1.700;2022-12-29T07:00:33;9.90;79.90
46926;DHT22;32667;48.248;-1.700;2022-12-29T07:03:00;9.90;79.90
46926;DHT22;32667;48.248;-1.700;2022-12-29T07:05:29;9.90;80.00
46926;DHT22;32667;48.248;-1.700;2022-12-29T07:07:57;9.90;80.00
46926;DHT22;32667;48.248;-1.700;2022-12-29T07:10:22;9.80;79.90
46926;DHT22;32667;48.248;-1.700;2022-12-29T07:12:48;9.90;80.00
46926;DHT22;32667;48.248;-1.700;2022-12-29T07:15:14;9.90;80.00
46926;DHT22;32667;48.248;-1.700;2022-12-29T07:20:44;9.80;80.00
46926;DHT22;32667;48.248;-1.700;2022-12-29T07:23:10;9.80;79.90
46926;DHT22;32667;48.248;-1.700;2022-12-29T07:25:36;9.80;80.00
46926;DHT22;32667;48.248;-1.700;2022-12-29T07:28:03;9.80;80.00
46926;DHT22;32667;48.248;-1.700;2022-12-29T07:30:29;9.80;80.50
46926;DHT22;32667;48.248;-1.700;2022-12-29T07:32:54;9.80;80.00
46926;DHT22;32667;48.248;-1.700;2022-12-29T07:35:20;9.80;79.90
46926;DHT22;32667;48.248;-1.700;2022-12-29T07:37:46;9.80;80.00
46926;DHT22;32667;48.248;-1.700;2022-12-29T07:40:12;9.80;79.90
46926;DHT22;32667;48.248;-1.700;2022-12-29T07:42:38;9.80;80.00
46926;DHT22;32667;48.248;-1.700;2022-12-29T07:45:04;9.70;79.90
46926;DHT22;32667;48.248;-1.700;2022-12-29T07:47:30;9.70;79.90
46926;DHT22;32667;48.248;-1.700;2022-12-29T07:49:56;9.70;80.00
46926;DHT22;32667;48.248;-1.700;2022-12-29T07:52:21;9.70;80.10
46926;DHT22;32667;48.248;-1.700;2022-12-29T07:54:47;9.70;80.10
46926;DHT22;32667;48.248;-1.700;2022-12-29T07:57:13;9.60;80.10
46926;DHT22;32667;48.248;-1.700;2022-12-29T07:59:38;9.60;80.20
46926;DHT22;32667;48.248;-1.700;2022-12-29T08:02:04;9.60;80.20
46926;DHT22;32667;48.248;-1.700;2022-12-29T08:04:30;9.50;80.20
46926;DHT22;32667;48.248;-1.700;2022-12-29T08:06:56;9.50;80.30
46926;DHT22;32667;48.248;-1.700;2022-12-29T08:09:21;9.40;80.20
46926;DHT22;32667;48.248;-1.700;2022-12-29T08:11:47;9.40;80.30
46926;DHT22;32667;48.248;-1.700;2022-12-29T08:14:13;9.40;80.30
46926;DHT22;32667;48.248;-1.700;2022-12-29T08:16:39;9.40;80.30
46926;DHT22;32667;48.248;-1.700;2022-12-29T08:19:04;9.40;80.30
46926;DHT22;32667;48.248;-1.700;2022-12-29T08:21:31;9.40;80.20
46926;DHT22;32667;48.248;-1.700;2022-12-29T08:23:57;9.50;80.30
46926;DHT22;32667;48.248;-1.700;2022-12-29T08:26:24;9.40;80.10
46926;DHT22;32667;48.248;-1.700;2022-12-29T08:28:52;9.40;80.10
46926;DHT22;32667;48.248;-1.700;2022-12-29T08:31:18;9.40;80.10
46926;DHT22;32667;48.248;-1.700;2022-12-29T08:33:44;9.50;80.10
46926;DHT22;32667;48.248;-1.700;2022-12-29T08:36:10;9.40;80.00
46926;DHT22;32667;48.248;-1.700;2022-12-29T08:38:35;9.40;80.00
46926;DHT22;32667;48.248;-1.700;2022-12-29T08:41:01;9.50;80.10
46926;DHT22;32667;48.248;-1.700;2022-12-29T08:43:27;9.50;80.00
46926;DHT22;32667;48.248;-1.700;2022-12-29T08:45:53;9.40;80.00
46926;DHT22;32667;48.248;-1.700;2022-12-29T08:48:19;9.40;80.00
46926;DHT22;32667;48.248;-1.700;2022-12-29T08:50:48;9.40;80.00
46926;DHT22;32667;48.248;-1.700;2022-12-29T08:53:15;9.50;80.00
46926;DHT22;32667;48.248;-1.700;2022-12-29T08:55:40;9.50;80.00
46926;DHT22;32667;48.248;-1.700;2022-12-29T08:58:06;9.50;80.00
46926;DHT22;32667;48.248;-1.700;2022-12-29T09:00:32;9.50;80.00
46926;DHT22;32667;48.248;-1.700;2022-12-29T09:02:58;9.50;79.90
46926;DHT22;32667;48.248;-1.700;2022-12-29T09:05:26;9.50;79.90
46926;DHT22;32667;48.248;-1.700;2022-12-29T09:07:51;9.50;79.90
46926;DHT22;32667;48.248;-1.700;2022-12-29T09:10:17;9.60;79.90
46926;DHT22;32667;48.248;-1.700;2022-12-29T09:12:43;9.60;79.90
46926;DHT22;32667;48.248;-1.700;2022-12-29T09:15:09;9.70;79.90
46926;DHT22;32667;48.248;-1.700;2022-12-29T09:17:35;9.70;79.80
46926;DHT22;32667;48.248;-1.700;2022-12-29T09:20:07;9.80;79.70
46926;DHT22;32667;48.248;-1.700;2022-12-29T09:22:34;9.80;79.50
46926;DHT22;32667;48.248;-1.700;2022-12-29T09:25:01;9.90;79.40
46926;DHT22;32667;48.248;-1.700;2022-12-29T09:27:26;9.90;79.30
46926;DHT22;32667;48.248;-1.700;2022-12-29T09:29:52;10.00;79.40
46926;DHT22;32667;48.248;-1.700;2022-12-29T09:32:18;10.00;79.30
46926;DHT22;32667;48.248;-1.700;2022-12-29T09:34:43;10.00;79.20
46926;DHT22;32667;48.248;-1.700;2022-12-29T09:37:09;10.00;79.10
46926;DHT22;32667;48.248;-1.700;2022-12-29T09:39:35;10.00;79.10
46926;DHT22;32667;48.248;-1.700;2022-12-29T09:44:50;10.10;79.10
46926;DHT22;32667;48.248;-1.700;2022-12-29T09:47:19;10.20;79.10
46926;DHT22;32667;48.248;-1.700;2022-12-29T09:49:58;10.20;79.00
46926;DHT22;32667;48.248;-1.700;2022-12-29T09:52:32;10.20;79.00
46926;DHT22;32667;48.248;-1.700;2022-12-29T09:55:13;10.20;78.90
46926;DHT22;32667;48.248;-1.700;2022-12-29T09:58:02;10.30;78.90
46926;DHT22;32667;48.248;-1.700;2022-12-29T10:03:21;10.40;78.80
46926;DHT22;32667;48.248;-1.700;2022-12-29T10:06:00;10.40;78.70
46926;DHT22;32667;48.248;-1.700;2022-12-29T10:08:41;10.40;78.60
46926;DHT22;32667;48.248;-1.700;2022-12-29T10:17:34;10.50;78.60
46926;DHT22;32667;48.248;-1.700;2022-12-29T10:20:14;10.60;78.50
46926;DHT22;32667;48.248;-1.700;2022-12-29T10:25:17;10.60;78.40
46926;DHT22;32667;48.248;-1.700;2022-12-29T10:27:47;10.60;78.40
46926;DHT22;32667;48.248;-1.700;2022-12-29T10:30:14;10.70;78.40
46926;DHT22;32667;48.248;-1.700;2022-12-29T10:32:49;10.70;78.30
46926;DHT22;32667;48.248;-1.700;2022-12-29T10:35:17;10.80;78.30
46926;DHT22;32667;48.248;-1.700;2022-12-29T10:38:05;10.80;78.20
46926;DHT22;32667;48.248;-1.700;2022-12-29T10:43:34;10.80;78.10
46926;DHT22;32667;48.248;-1.700;2022-12-29T10:46:05;10.90;78.00
46926;DHT22;32667;48.248;-1.700;2022-12-29T10:48:34;11.00;78.00
46926;DHT22;32667;48.248;-1.700;2022-12-29T10:51:04;11.00;77.90
46926;DHT22;32667;48.248;-1.700;2022-12-29T10:53:42;11.10;77.80
46926;DHT22;32667;48.248;-1.700;2022-12-29T10:56:29;11.10;77.80
46926;DHT22;32667;48.248;-1.700;2022-12-29T10:58:59;11.20;77.80
46926;DHT22;32667;48.248;-1.700;2022-12-29T11:01:34;11.20;77.70
46926;DHT22;32667;48.248;-1.700;2022-12-29T11:06:59;11.30;77.70
46926;DHT22;32667;48.248;-1.700;2022-12-29T11:09:30;11.30;77.60
46926;DHT22;32667;48.248;-1.700;2022-12-29T11:11:56;11.30;77.50
46926;DHT22;32667;48.248;-1.700;2022-12-29T11:14:30;11.40;77.60
46926;DHT22;32667;48.248;-1.700;2022-12-29T11:17:01;11.40;78.10
46926;DHT22;32667;48.248;-1.700;2022-12-29T11:19:32;11.40;77.50
46926;DHT22;32667;48.248;-1.700;2022-12-29T11:24:46;11.50;77.40
46926;DHT22;32667;48.248;-1.700;2022-12-29T11:27:24;11.50;77.40
46926;DHT22;32667;48.248;-1.700;2022-12-29T11:29:51;11.60;77.40
46926;DHT22;32667;48.248;-1.700;2022-12-29T11:32:26;11.60;77.30
46926;DHT22;32667;48.248;-1.700;2022-12-29T11:34:53;11.70;77.30
46926;DHT22;32667;48.248;-1.700;2022-12-29T11:37:38;11.70;77.30
46926;DHT22;32667;48.248;-1.700;2022-12-29T11:40:09;11.70;77.30
46926;DHT22;32667;48.248;-1.700;2022-12-29T11:42:56;11.80;77.30
46926;DHT22;32667;48.248;-1.700;2022-12-29T11:45:27;11.80;77.20
46926;DHT22;32667;48.248;-1.700;2022-12-29T11:48:07;11.80;77.10
46926;DHT22;32667;48.248;-1.700;2022-12-29T11:50:40;11.80;77.20
46926;DHT22;32667;48.248;-1.700;2022-12-29T11:53:19;11.90;77.20
46926;DHT22;32667;48.248;-1.700;2022-12-29T11:56:04;11.90;77.10
46926;DHT22;32667;48.248;-1.700;2022-12-29T11:58:35;12.00;77.10
46926;DHT22;32667;48.248;-1.700;2022-12-29T12:03:35;12.00;77.10
46926;DHT22;32667;48.248;-1.700;2022-12-29T12:06:03;12.10;77.10
46926;DHT22;32667;48.248;-1.700;2022-12-29T12:08:48;12.10;77.00
46926;DHT22;32667;48.248;-1.700;2022-12-29T12:11:22;12.20;77.00
46926;DHT22;32667;48.248;-1.700;2022-12-29T12:14:18;12.20;76.80
46926;DHT22;32667;48.248;-1.700;2022-12-29T12:17:00;12.20;76.90
46926;DHT22;32667;48.248;-1.700;2022-12-29T12:22:37;12.30;76.80
46926;DHT22;32667;48.248;-1.700;2022-12-29T12:30:37;12.40;76.80
46926;DHT22;32667;48.248;-1.700;2022-12-29T12:36:21;12.50;76.60
46926;DHT22;32667;48.248;-1.700;2022-12-29T12:39:18;12.50;76.70
46926;DHT22;32667;48.248;-1.700;2022-12-29T12:42:13;12.50;76.70
46926;DHT22;32667;48.248;-1.700;2022-12-29T12:50:42;12.50;76.70
46926;DHT22;32667;48.248;-1.700;2022-12-29T12:53:34;12.50;76.70
46926;DHT22;32667;48.248;-1.700;2022-12-29T12:56:27;12.40;76.80
46926;DHT22;32667;48.248;-1.700;2022-12-29T13:05:08;12.40;77.20
46926;DHT22;32667;48.248;-1.700;2022-12-29T13:18:43;12.30;77.20
46926;DHT22;32667;48.248;-1.700;2022-12-29T13:21:37;12.30;77.30
46926;DHT22;32667;48.248;-1.700;2022-12-29T13:24:20;12.40;77.20
46926;DHT22;32667;48.248;-1.700;2022-12-29T13:26:52;12.50;77.10
46926;DHT22;32667;48.248;-1.700;2022-12-29T13:35:52;12.70;76.60
46926;DHT22;32667;48.248;-1.700;2022-12-29T13:38:28;12.70;76.70
46926;DHT22;32667;48.248;-1.700;2022-12-29T13:41:01;12.70;76.60
46926;DHT22;32667;48.248;-1.700;2022-12-29T13:43:32;12.80;76.60
46926;DHT22;32667;48.248;-1.700;2022-12-29T13:46:11;12.90;76.50
46926;DHT22;32667;48.248;-1.700;2022-12-29T13:48:50;12.90;76.40
46926;DHT22;32667;48.248;-1.700;2022-12-29T13:51:18;13.00;76.50
46926;DHT22;32667;48.248;-1.700;2022-12-29T13:59:26;13.00;76.40
46926;DHT22;32667;48.248;-1.700;2022-12-29T14:05:04;13.00;76.50
46926;DHT22;32667;48.248;-1.700;2022-12-29T14:07:37;13.00;76.60
46926;DHT22;32667;48.248;-1.700;2022-12-29T14:10:04;13.00;76.70
46926;DHT22;32667;48.248;-1.700;2022-12-29T14:12:40;13.10;76.80
46926;DHT22;32667;48.248;-1.700;2022-12-29T14:15:26;13.00;76.70
46926;DHT22;32667;48.248;-1.700;2022-12-29T14:18:02;13.00;76.80
46926;DHT22;32667;48.248;-1.700;2022-12-29T14:20:29;12.90;76.90
46926;DHT22;32667;48.248;-1.700;2022-12-29T14:23:14;12.80;77.00
46926;DHT22;32667;48.248;-1.700;2022-12-29T14:25:59;12.70;77.20
46926;DHT22;32667;48.248;-1.700;2022-12-29T14:28:30;12.50;77.40
46926;DHT22;32667;48.248;-1.700;2022-12-29T14:30:58;12.50;77.50
46926;DHT22;32667;48.248;-1.700;2022-12-29T14:33:27;12.40;77.60
46926;DHT22;32667;48.248;-1.700;2022-12-29T14:35:53;12.40;77.80
46926;DHT22;32667;48.248;-1.700;2022-12-29T14:38:28;12.30;77.80
46926;DHT22;32667;48.248;-1.700;2022-12-29T14:41:27;12.30;77.70
46926;DHT22;32667;48.248;-1.700;2022-12-29T14:44:01;12.20;77.90
46926;DHT22;32667;48.248;-1.700;2022-12-29T14:46:54;12.10;78.10
46926;DHT22;32667;48.248;-1.700;2022-12-29T14:49:24;12.00;78.20
46926;DHT22;32667;48.248;-1.700;2022-12-29T14:52:04;11.90;78.20
46926;DHT22;32667;48.248;-1.700;2022-12-29T14:57:03;11.70;78.60
46926;DHT22;32667;48.248;-1.700;2022-12-29T14:59:31;11.60;78.70
46926;DHT22;32667;48.248;-1.700;2022-12-29T15:01:58;11.50;78.80
46926;DHT22;32667;48.248;-1.700;2022-12-29T15:04:30;11.30;78.90
46926;DHT22;32667;48.248;-1.700;2022-12-29T15:06:57;11.30;79.10
46926;DHT22;32667;48.248;-1.700;2022-12-29T15:09:39;11.20;79.20
46926;DHT22;32667;48.248;-1.700;2022-12-29T15:14:51;11.10;79.30
46926;DHT22;32667;48.248;-1.700;2022-12-29T15:17:29;11.10;79.30
46926;DHT22;32667;48.248;-1.700;2022-12-29T15:20:00;11.10;79.20
46926;DHT22;32667;48.248;-1.700;2022-12-29T15:22:26;11.00;79.30
46926;DHT22;32667;48.248;-1.700;2022-12-29T15:24:54;11.00;79.20
46926;DHT22;32667;48.248;-1.700;2022-12-29T15:27:25;11.00;79.30
46926;DHT22;32667;48.248;-1.700;2022-12-29T15:30:00;10.90;79.20
46926;DHT22;32667;48.248;-1.700;2022-12-29T15:32:43;11.00;79.30
46926;DHT22;32667;48.248;-1.700;2022-12-29T15:37:48;10.90;79.20
46926;DHT22;32667;48.248;-1.700;2022-12-29T15:40:24;10.90;79.20
46926;DHT22;32667;48.248;-1.700;2022-12-29T15:46:01;11.00;79.10
46926;DHT22;32667;48.248;-1.700;2022-12-29T15:48:28;11.00;79.10
46926;DHT22;32667;48.248;-1.700;2022-12-29T15:50:54;11.10;79.00
46926;DHT22;32667;48.248;-1.700;2022-12-29T15:53:28;11.10;78.90
46926;DHT22;32667;48.248;-1.700;2022-12-29T15:55:57;11.10;78.90
46926;DHT22;32667;48.248;-1.700;2022-12-29T15:58:27;11.10;78.80
46926;DHT22;32667;48.248;-1.700;2022-12-29T16:00:56;11.10;78.80
46926;DHT22;32667;48.248;-1.700;2022-12-29T16:03:25;11.10;78.80
46926;DHT22;32667;48.248;-1.700;2022-12-29T16:06:10;11.10;78.80
46926;DHT22;32667;48.248;-1.700;2022-12-29T16:09:00;11.10;78.90
46926;DHT22;32667;48.248;-1.700;2022-12-29T16:11:37;11.00;78.90
46926;DHT22;32667;48.248;-1.700;2022-12-29T16:14:33;11.00;79.00
46926;DHT22;32667;48.248;-1.700;2022-12-29T16:17:03;11.00;79.10
46926;DHT22;32667;48.248;-1.700;2022-12-29T16:19:35;11.00;78.90
46926;DHT22;32667;48.248;-1.700;2022-12-29T16:22:04;11.00;78.90
46926;DHT22;32667;48.248;-1.700;2022-12-29T16:24:39;11.00;78.90
46926;DHT22;32667;48.248;-1.700;2022-12-29T16:29:34;11.00;78.80
46926;DHT22;32667;48.248;-1.700;2022-12-29T16:32:01;10.90;78.80
46926;DHT22;32667;48.248;-1.700;2022-12-29T16:34:32;10.80;78.90
46926;DHT22;32667;48.248;-1.700;2022-12-29T16:37:01;10.70;79.20
46926;DHT22;32667;48.248;-1.700;2022-12-29T16:39:34;10.60;79.30
46926;DHT22;32667;48.248;-1.700;2022-12-29T16:42:00;10.50;79.40
46926;DHT22;32667;48.248;-1.700;2022-12-29T16:44:28;10.40;79.50
46926;DHT22;32667;48.248;-1.700;2022-12-29T16:47:18;10.40;79.60
46926;DHT22;32667;48.248;-1.700;2022-12-29T16:49:48;10.30;79.70
46926;DHT22;32667;48.248;-1.700;2022-12-29T16:52:25;10.20;79.70
46926;DHT22;32667;48.248;-1.700;2022-12-29T16:54:56;10.10;79.70
46926;DHT22;32667;48.248;-1.700;2022-12-29T16:57:28;10.10;79.80
46926;DHT22;32667;48.248;-1.700;2022-12-29T16:59:57;10.10;79.90
46926;DHT22;32667;48.248;-1.700;2022-12-29T17:02:26;10.00;79.90
46926;DHT22;32667;48.248;-1.700;2022-12-29T17:04:52;10.00;79.90
46926;DHT22;32667;48.248;-1.700;2022-12-29T17:07:23;9.90;79.90
46926;DHT22;32667;48.248;-1.700;2022-12-29T17:09:49;9.90;80.00
46926;DHT22;32667;48.248;-1.700;2022-12-29T17:12:21;9.80;80.00
46926;DHT22;32667;48.248;-1.700;2022-12-29T17:14:56;9.80;80.10
46926;DHT22;32667;48.248;-1.700;2022-12-29T17:17:43;9.70;80.10
46926;DHT22;32667;48.248;-1.700;2022-12-29T17:20:22;9.70;80.10
46926;DHT22;32667;48.248;-1.700;2022-12-29T17:22:49;9.70;80.20
46926;DHT22;32667;48.248;-1.700;2022-12-29T17:25:32;9.60;80.10
46926;DHT22;32667;48.248;-1.700;2022-12-29T17:27:59;9.60;80.10
46926;DHT22;32667;48.248;-1.700;2022-12-29T17:30:29;9.60;80.10
46926;DHT22;32667;48.248;-1.700;2022-12-29T17:33:01;9.60;80.10
46926;DHT22;32667;48.248;-1.700;2022-12-29T17:35:28;9.50;80.00
46926;DHT22;32667;48.248;-1.700;2022-12-29T17:37:54;9.50;80.10
46926;DHT22;32667;48.248;-1.700;2022-12-29T17:40:28;9.50;80.10
46926;DHT22;32667;48.248;-1.700;2022-12-29T17:42:55;9.50;80.10
46926;DHT22;32667;48.248;-1.700;2022-12-29T17:45:24;9.50;80.10
46926;DHT22;32667;48.248;-1.700;2022-12-29T17:47:50;9.40;80.10
46926;DHT22;32667;48.248;-1.700;2022-12-29T17:50:19;9.40;80.10
46926;DHT22;32667;48.248;-1.700;2022-12-29T17:52:55;9.40;80.00
46926;DHT22;32667;48.248;-1.700;2022-12-29T17:55:24;9.50;80.00
46926;DHT22;32667;48.248;-1.700;2022-12-29T17:57:51;9.50;79.90
46926;DHT22;32667;48.248;-1.700;2022-12-29T18:00:28;9.50;79.90
46926;DHT22;32667;48.248;-1.700;2022-12-29T18:02:59;9.60;79.90
46926;DHT22;32667;48.248;-1.700;2022-12-29T18:05:29;9.60;79.80
46926;DHT22;32667;48.248;-1.700;2022-12-29T18:07:58;9.50;79.80
46926;DHT22;32667;48.248;-1.700;2022-12-29T18:10:27;9.60;79.80
46926;DHT22;32667;48.248;-1.700;2022-12-29T18:30:25;9.30;79.80
46926;DHT22;32667;48.248;-1.700;2022-12-29T18:40:20;9.10;79.90
46926;DHT22;32667;48.248;-1.700;2022-12-29T18:42:51;9.10;80.50
46926;DHT22;32667;48.248;-1.700;2022-12-29T18:46:13;9.10;80.00
46926;DHT22;32667;48.248;-1.700;2022-12-29T18:48:39;9.00;80.10
46926;DHT22;32667;48.248;-1.700;2022-12-29T18:51:06;9.00;80.10
46926;DHT22;32667;48.248;-1.700;2022-12-29T18:53:35;9.00;80.10
46926;DHT22;32667;48.248;-1.700;2022-12-29T18:56:02;9.00;80.20
46926;DHT22;32667;48.248;-1.700;2022-12-29T18:58:44;8.90;80.20